createdAt,value
2018-04-27T00:02:09.335Z,57.33
2018-04-27T00:04:37.011Z,57.54
2018-04-27T00:07:04.715Z,57.97
2018-04-27T00:09:32.363Z,57.92
2018-04-27T00:12:00.099Z,57.97
2018-04-27T00:14:27.742Z,58.22
2018-04-27T00:16:55.358Z,58.74
2018-04-27T00:19:22.989Z,58.82
2018-04-27T00:21:50.612Z,59.42
2018-04-27T00:24:18.286Z,59.51
2018-04-27T00:26:45.910Z,59.40
2018-04-27T00:29:13.549Z,59.17
2018-04-27T00:31:44.522Z,59.68
2018-04-27T00:34:12.158Z,59.99
2018-04-27T00:36:39.782Z,60.17
2018-04-27T00:39:07.449Z,60.67
2018-04-27T00:41:35.102Z,60.29
2018-04-27T00:44:02.735Z,60.21
2018-04-27T00:46:30.390Z,59.95
2018-04-27T00:48:58.015Z,59.24
2018-04-27T00:51:25.679Z,59.25
2018-04-27T00:53:53.325Z,60.19
2018-04-27T00:56:20.947Z,60.46
2018-04-27T00:58:48.598Z,60.20
2018-04-27T01:01:16.222Z,59.90
2018-04-27T01:03:43.879Z,59.02
2018-04-27T01:06:11.532Z,59.05
2018-04-27T01:08:39.154Z,58.68
2018-04-27T01:11:06.782Z,59.61
2018-04-27T01:13:34.451Z,59.63
2018-04-27T01:16:02.103Z,59.66
2018-04-27T01:18:29.734Z,59.05
2018-04-27T01:20:57.451Z,60.17
2018-04-27T01:23:25.166Z,60.11
2018-04-27T01:25:52.895Z,59.88
2018-04-27T01:28:20.558Z,58.60
2018-04-27T01:30:48.206Z,57.66
2018-04-27T01:33:15.834Z,56.68
2018-04-27T01:35:43.475Z,56.98
2018-04-27T01:38:11.134Z,57.98
2018-04-27T01:40:38.760Z,58.08
2018-04-27T01:43:06.387Z,59.48
2018-04-27T01:45:34.050Z,60.30
2018-04-27T01:48:01.711Z,60.27
2018-04-27T01:50:29.351Z,61.06
2018-04-27T01:52:57.022Z,60.62
2018-04-27T01:55:24.651Z,60.53
2018-04-27T01:57:52.311Z,60.88
2018-04-27T02:00:19.940Z,61.09
2018-04-27T02:02:47.558Z,60.62
2018-04-27T02:05:15.226Z,61.08
2018-04-27T02:07:42.851Z,60.90
2018-04-27T02:10:10.482Z,60.69
2018-04-27T02:12:38.141Z,61.85
2018-04-27T02:15:05.745Z,62.40
2018-04-27T02:17:33.383Z,62.94
2018-04-27T02:20:00.981Z,63.10
2018-04-27T02:22:28.577Z,63.11
2018-04-27T02:24:56.162Z,63.21
2018-04-27T02:27:23.790Z,62.76
2018-04-27T02:29:51.378Z,62.61
2018-04-27T02:32:18.972Z,62.92
2018-04-27T02:34:46.561Z,62.85
2018-04-27T02:37:14.182Z,62.61
2018-04-27T02:39:41.773Z,62.25
2018-04-27T02:42:09.363Z,61.57
2018-04-27T02:44:36.985Z,61.46
2018-04-27T02:47:04.589Z,61.41
2018-04-27T02:49:32.219Z,61.92
2018-04-27T02:51:59.971Z,62.49
2018-04-27T02:54:27.565Z,61.92
2018-04-27T02:56:55.185Z,62.18
2018-04-27T02:59:22.845Z,62.73
2018-04-27T03:01:50.445Z,62.19
2018-04-27T03:04:18.030Z,61.65
2018-04-27T03:06:47.174Z,61.71
2018-04-27T03:09:14.767Z,61.39
2018-04-27T03:11:42.358Z,61.03
2018-04-27T03:14:09.941Z,60.54
2018-04-27T03:16:37.525Z,60.50
2018-04-27T03:19:05.153Z,60.79
2018-04-27T03:21:32.757Z,60.17
2018-04-27T03:24:00.365Z,59.85
2018-04-27T03:26:27.965Z,59.53
2018-04-27T03:28:55.580Z,59.54
2018-04-27T03:31:23.194Z,59.97
2018-04-27T03:33:50.792Z,59.94
2018-04-27T03:36:18.429Z,60.36
2018-04-27T03:38:46.042Z,59.85
2018-04-27T03:41:13.641Z,59.40
2018-04-27T03:43:41.233Z,59.20
2018-04-27T03:46:08.901Z,59.55
2018-04-27T03:48:36.540Z,58.71
2018-04-27T03:51:04.122Z,57.76
2018-04-27T03:53:31.709Z,57.87
2018-04-27T03:55:59.301Z,57.96
2018-04-27T03:58:26.911Z,58.23
2018-04-27T04:01:06.379Z,58.02
2018-04-27T04:03:45.596Z,57.71
2018-04-27T04:06:13.202Z,57.50
2018-04-27T04:08:40.830Z,58.18
2018-04-27T04:11:08.434Z,58.97
2018-04-27T04:13:36.107Z,58.51
2018-04-27T04:16:03.670Z,58.35
2018-04-27T04:18:31.342Z,57.90
2018-04-27T04:20:58.933Z,58.47
2018-04-27T04:23:26.525Z,57.71
2018-04-27T04:25:54.149Z,58.09
2018-04-27T04:28:21.737Z,57.94
2018-04-27T04:30:49.381Z,57.57
2018-04-27T04:33:16.987Z,56.20
2018-04-27T04:35:44.569Z,56.06
2018-04-27T04:38:12.189Z,56.58
2018-04-27T04:40:39.809Z,57.76
2018-04-27T04:43:07.405Z,56.06
2018-04-27T04:45:35.010Z,57.05
2018-04-27T04:48:02.695Z,56.91
2018-04-27T04:50:30.333Z,57.34
2018-04-27T04:52:57.918Z,58.39
2018-04-27T04:55:25.589Z,58.49
2018-04-27T04:57:53.209Z,58.76
2018-04-27T05:00:20.797Z,58.79
2018-04-27T05:02:48.528Z,58.23
2018-04-27T05:05:16.096Z,56.75
2018-04-27T05:07:43.694Z,58.17
2018-04-27T05:10:11.377Z,57.69
2018-04-27T05:12:39.018Z,57.37
2018-04-27T05:15:06.622Z,57.25
2018-04-27T05:17:34.222Z,57.13
2018-04-27T05:20:01.364Z,57.53
2018-04-27T05:22:29.126Z,57.68
2018-04-27T05:24:56.737Z,58.12
2018-04-27T05:27:24.337Z,58.03
2018-04-27T05:29:51.965Z,58.47
2018-04-27T05:32:19.602Z,58.58
2018-04-27T05:34:47.368Z,58.68
2018-04-27T05:37:15.057Z,58.40
2018-04-27T05:39:42.773Z,57.73
2018-04-27T05:42:10.439Z,57.80
2018-04-27T05:44:38.041Z,57.00
2018-04-27T05:47:05.653Z,57.23
2018-04-27T05:49:33.285Z,57.32
2018-04-27T05:52:00.891Z,55.95
2018-04-27T05:54:28.493Z,55.69
2018-04-27T05:56:56.129Z,55.78
2018-04-27T05:59:23.777Z,55.95
2018-04-27T06:01:51.375Z,55.51
2018-04-27T06:04:19.065Z,55.87
2018-04-27T06:06:46.660Z,55.05
2018-04-27T06:09:14.261Z,53.97
2018-04-27T06:11:41.878Z,52.25
2018-04-27T06:14:09.477Z,52.39
2018-04-27T06:16:37.120Z,51.33
2018-04-27T06:19:04.729Z,50.73
2018-04-27T06:21:32.318Z,50.31
2018-04-27T06:23:59.950Z,50.12
2018-04-27T06:26:27.566Z,50.45
2018-04-27T06:28:55.174Z,50.14
2018-04-27T06:31:22.854Z,49.73
2018-04-27T06:33:50.455Z,48.92
2018-04-27T06:36:18.064Z,48.79
2018-04-27T06:38:45.697Z,48.25
2018-04-27T06:41:13.318Z,48.36
2018-04-27T06:43:40.933Z,47.40
2018-04-27T06:46:08.613Z,46.83
2018-04-27T06:48:36.209Z,47.21
2018-04-27T06:51:03.814Z,46.27
2018-04-27T06:53:31.437Z,45.68
2018-04-27T06:55:59.061Z,44.83
2018-04-27T06:58:26.710Z,44.06
2018-04-27T07:00:54.390Z,43.38
2018-04-27T07:03:21.996Z,42.73
2018-04-27T07:05:49.581Z,42.18
2018-04-27T07:08:17.177Z,41.44
2018-04-27T07:10:44.765Z,39.94
2018-04-27T07:13:12.425Z,38.93
2018-04-27T07:15:40.022Z,38.09
2018-04-27T07:18:07.614Z,37.91
2018-04-27T07:20:35.283Z,37.32
2018-04-27T07:23:02.886Z,36.86
2018-04-27T07:25:30.469Z,37.32
2018-04-27T07:27:58.102Z,35.80
2018-04-27T07:30:25.741Z,36.03
2018-04-27T07:32:53.380Z,34.93
2018-04-27T07:35:21.001Z,35.90
2018-04-27T07:37:48.582Z,34.78
2018-04-27T07:40:16.165Z,34.34
2018-04-27T07:42:43.755Z,34.05
2018-04-27T07:45:11.356Z,33.54
2018-04-27T07:47:38.971Z,32.54
2018-04-27T07:50:06.561Z,33.68
2018-04-27T07:52:34.153Z,32.65
2018-04-27T07:55:01.733Z,32.70
2018-04-27T07:57:29.355Z,30.55
2018-04-27T07:59:56.941Z,30.97
2018-04-27T08:02:24.590Z,31.72
2018-04-27T08:04:52.286Z,30.95
2018-04-27T08:07:19.961Z,30.02
2018-04-27T08:09:47.493Z,30.80
2018-04-27T08:12:15.119Z,29.28
2018-04-27T08:14:42.714Z,28.83
2018-04-27T08:17:10.321Z,29.35
2018-04-27T08:19:37.934Z,29.13
2018-04-27T08:22:06.233Z,28.49
2018-04-27T08:24:33.899Z,27.47
2018-04-27T08:27:01.481Z,26.77
2018-04-27T08:29:29.086Z,26.83
2018-04-27T08:31:56.730Z,28.27
2018-04-27T08:34:24.357Z,27.77
2018-04-27T08:36:51.983Z,27.67
2018-04-27T08:39:19.582Z,27.86
2018-04-27T08:41:47.183Z,27.70
2018-04-27T08:44:14.825Z,26.84
2018-04-27T08:46:42.421Z,27.40
2018-04-27T08:49:10.016Z,26.31
2018-04-27T08:51:37.653Z,25.96
2018-04-27T08:54:05.244Z,25.91
2018-04-27T08:56:32.853Z,26.20
2018-04-27T08:59:00.481Z,25.63
2018-04-27T09:01:28.078Z,24.72
2018-04-27T09:03:55.678Z,24.19
2018-04-27T09:06:23.322Z,24.55
2018-04-27T09:08:50.970Z,24.91
2018-04-27T09:11:18.577Z,24.17
2018-04-27T09:13:46.174Z,25.01
2018-04-27T09:16:13.826Z,24.84
2018-04-27T09:18:41.455Z,24.80
2018-04-27T09:21:09.124Z,24.74
2018-04-27T09:23:36.714Z,23.71
2018-04-27T09:26:04.327Z,23.90
2018-04-27T09:28:31.925Z,22.71
2018-04-27T09:30:59.518Z,21.46
2018-04-27T09:33:27.149Z,22.17
2018-04-27T09:35:54.758Z,21.74
2018-04-27T09:38:22.353Z,21.64
2018-04-27T09:40:49.986Z,22.07
2018-04-27T09:43:17.599Z,21.97
2018-04-27T09:45:45.270Z,20.83
2018-04-27T09:48:12.901Z,22.25
2018-04-27T09:50:40.611Z,21.32
2018-04-27T09:53:08.184Z,20.65
2018-04-27T09:55:35.840Z,18.85
2018-04-27T09:58:03.503Z,18.14
2018-04-27T10:00:31.141Z,17.89
2018-04-27T10:02:58.758Z,19.52
2018-04-27T10:05:26.393Z,18.20
2018-04-27T10:07:54.035Z,18.85
2018-04-27T10:10:21.625Z,18.42
2018-04-27T10:12:49.248Z,16.38
2018-04-27T10:15:16.881Z,18.32
2018-04-27T10:17:44.503Z,17.49
2018-04-27T10:20:12.093Z,18.60
2018-04-27T10:22:39.730Z,19.23
2018-04-27T10:25:07.321Z,19.21
2018-04-27T10:27:34.953Z,19.10
2018-04-27T10:30:02.549Z,16.74
2018-04-27T10:32:30.129Z,16.13
2018-04-27T10:34:57.756Z,15.01
2018-04-27T10:37:25.380Z,15.16
2018-04-27T10:39:53.025Z,14.91
2018-04-27T10:42:20.665Z,15.35
2018-04-27T10:44:48.261Z,16.65
2018-04-27T10:47:16.014Z,15.96
2018-04-27T10:49:43.775Z,16.81
2018-04-27T10:52:11.418Z,17.16
2018-04-27T10:54:39.050Z,16.60
2018-04-27T10:57:06.713Z,17.72
2018-04-27T10:59:34.388Z,18.39
2018-04-27T11:02:02.036Z,17.58
2018-04-27T11:04:29.669Z,16.48
2018-04-27T11:06:57.415Z,17.32
2018-04-27T11:09:25.061Z,16.36
2018-04-27T11:11:52.673Z,15.66
2018-04-27T11:14:20.325Z,15.62
2018-04-27T11:16:48.012Z,15.30
2018-04-27T11:19:15.654Z,15.25
2018-04-27T11:21:43.270Z,15.86
2018-04-27T11:24:10.909Z,16.46
2018-04-27T11:26:38.558Z,17.11
2018-04-27T11:29:06.139Z,15.91
2018-04-27T11:31:33.728Z,16.63
2018-04-27T11:34:01.374Z,15.36
2018-04-27T11:36:28.981Z,16.08
2018-04-27T11:38:56.607Z,16.27
2018-04-27T11:41:24.257Z,14.86
2018-04-27T11:43:51.893Z,16.24
2018-04-27T11:46:19.470Z,16.10
2018-04-27T11:48:47.069Z,14.42
2018-04-27T11:51:14.685Z,15.19
2018-04-27T11:53:42.322Z,15.15
2018-04-27T11:56:09.922Z,15.92
2018-04-27T11:58:37.540Z,18.10
2018-04-27T12:01:05.200Z,18.15
2018-04-27T12:03:32.790Z,18.99
2018-04-27T12:06:00.423Z,19.94
2018-04-27T12:08:28.125Z,19.70
2018-04-27T12:10:55.752Z,20.54
2018-04-27T12:13:23.385Z,21.21
2018-04-27T12:15:51.038Z,21.71
2018-04-27T12:18:18.678Z,21.46
2018-04-27T12:20:46.286Z,22.57
2018-04-27T12:23:13.901Z,22.90
2018-04-27T12:25:41.537Z,23.29
2018-04-27T12:28:09.133Z,23.85
2018-04-27T12:30:36.754Z,24.85
2018-04-27T12:33:04.350Z,23.92
2018-04-27T12:35:31.989Z,23.30
2018-04-27T12:37:59.654Z,23.46
2018-04-27T12:40:27.273Z,24.05
2018-04-27T12:42:54.993Z,23.67
2018-04-27T12:45:22.665Z,23.26
2018-04-27T12:47:50.321Z,22.87
2018-04-27T12:50:17.929Z,22.08
2018-04-27T12:52:45.577Z,22.03
2018-04-27T12:55:13.204Z,22.26
2018-04-27T12:57:40.821Z,21.69
2018-04-27T13:00:08.448Z,22.18
2018-04-27T13:02:36.065Z,22.58
2018-04-27T13:05:03.674Z,21.20
2018-04-27T13:07:31.298Z,21.15
2018-04-27T13:09:58.938Z,20.69
2018-04-27T13:12:26.608Z,20.40
2018-04-27T13:14:54.273Z,20.33
2018-04-27T13:17:21.931Z,20.35
2018-04-27T13:19:49.589Z,19.07
2018-04-27T13:22:17.219Z,18.59
2018-04-27T13:24:44.808Z,18.85
2018-04-27T13:27:12.382Z,21.37
2018-04-27T13:29:40.098Z,19.51
2018-04-27T13:32:07.696Z,24.05
2018-04-27T13:34:35.359Z,25.99
2018-04-27T13:37:02.960Z,28.08
2018-04-27T13:39:30.558Z,29.61
2018-04-27T13:41:58.186Z,29.99
2018-04-27T13:44:25.787Z,31.77
2018-04-27T13:46:53.426Z,32.72
2018-04-27T13:49:21.130Z,33.19
2018-04-27T13:51:48.787Z,33.93
2018-04-27T13:54:16.409Z,33.88
2018-04-27T13:56:44.063Z,34.41
2018-04-27T13:59:11.693Z,34.53
2018-04-27T14:01:39.335Z,35.02
2018-04-27T14:04:06.974Z,34.88
2018-04-27T14:06:34.626Z,34.21
2018-04-27T14:09:03.112Z,34.07
2018-04-27T14:11:30.829Z,33.58
2018-04-27T14:13:58.524Z,33.76
2018-04-27T14:16:26.177Z,34.38
2018-04-27T14:18:53.742Z,33.60
2018-04-27T14:21:21.452Z,34.40
2018-04-27T14:23:49.038Z,34.86
2018-04-27T14:26:16.674Z,35.40
2018-04-27T14:28:44.285Z,33.19
2018-04-27T14:31:11.913Z,34.29
2018-04-27T14:33:39.582Z,33.77
2018-04-27T14:36:07.145Z,34.12
2018-04-27T14:38:34.767Z,33.19
2018-04-27T14:41:02.406Z,35.15
2018-04-27T14:43:30.013Z,35.89
2018-04-27T14:45:57.629Z,34.86
2018-04-27T14:48:25.229Z,32.68
2018-04-27T14:50:52.850Z,33.22
2018-04-27T14:53:20.455Z,33.18
2018-04-27T14:55:48.145Z,33.16
2018-04-27T14:58:15.867Z,34.02
2018-04-27T15:00:43.502Z,33.87
2018-04-27T15:03:11.197Z,32.63
2018-04-27T15:05:38.876Z,32.70
2018-04-27T15:08:06.489Z,32.76
2018-04-27T15:10:34.114Z,32.04
2018-04-27T15:13:01.805Z,32.31
2018-04-27T15:15:29.421Z,32.90
2018-04-27T15:17:57.068Z,34.20
2018-04-27T15:20:24.685Z,34.09
2018-04-27T15:22:52.309Z,32.64
2018-04-27T15:25:19.913Z,33.40
2018-04-27T15:27:47.549Z,31.89
2018-04-27T15:30:15.191Z,32.30
2018-04-27T15:32:42.853Z,35.06
2018-04-27T15:35:10.678Z,34.87
2018-04-27T15:37:38.348Z,34.83
2018-04-27T15:40:05.973Z,34.58
2018-04-27T15:42:33.622Z,34.48
2018-04-27T15:45:01.205Z,34.71
2018-04-27T15:47:28.842Z,34.26
2018-04-27T15:49:56.489Z,35.91
2018-04-27T15:52:24.101Z,33.44
2018-04-27T15:54:51.724Z,32.62
2018-04-27T15:57:19.302Z,32.94
2018-04-27T15:59:47.783Z,32.98
2018-04-27T16:02:15.458Z,34.32
2018-04-27T16:04:43.078Z,33.94
2018-04-27T16:07:10.777Z,35.23
2018-04-27T16:09:38.441Z,35.03
2018-04-27T16:12:06.061Z,34.82
2018-04-27T16:14:33.713Z,34.27
2018-04-27T16:17:01.317Z,34.18
2018-04-27T16:19:28.977Z,34.08
2018-04-27T16:21:56.596Z,34.36
2018-04-27T16:24:24.214Z,34.43
2018-04-27T16:26:51.873Z,34.58
2018-04-27T16:29:19.513Z,35.09
2018-04-27T16:31:47.137Z,34.27
2018-04-27T16:34:14.925Z,33.92
2018-04-27T16:36:42.565Z,34.56
2018-04-27T16:39:10.235Z,33.98
2018-04-27T16:41:37.853Z,34.55
2018-04-27T16:44:05.508Z,34.91
2018-04-27T16:46:33.093Z,35.49
2018-04-27T16:49:00.679Z,36.36
2018-04-27T16:51:28.282Z,35.71
2018-04-27T16:53:55.900Z,35.94
2018-04-27T16:56:23.497Z,35.71
2018-04-27T16:58:51.165Z,36.12
2018-04-27T17:01:18.811Z,36.02
2018-04-27T17:03:46.518Z,36.19
2018-04-27T17:06:14.100Z,35.77
2018-04-27T17:08:41.766Z,36.06
2018-04-27T17:11:09.369Z,36.33
2018-04-27T17:13:37.001Z,36.27
2018-04-27T17:16:04.633Z,36.53
2018-04-27T17:18:32.269Z,36.95
2018-04-27T17:20:59.893Z,37.47
2018-04-27T17:23:27.521Z,38.06
2018-04-27T17:25:55.137Z,37.95
2018-04-27T17:28:22.749Z,38.07
2018-04-27T17:30:50.414Z,37.85
2018-04-27T17:33:18.125Z,37.13
2018-04-27T17:35:45.795Z,37.37
2018-04-27T17:38:13.469Z,37.35
2018-04-27T17:40:41.095Z,38.17
2018-04-27T17:43:08.757Z,37.99
2018-04-27T17:45:36.367Z,38.29
2018-04-27T17:48:04.041Z,39.52
2018-04-27T17:50:31.689Z,38.78
2018-04-27T17:52:59.301Z,39.36
2018-04-27T17:55:26.897Z,39.71
2018-04-27T17:57:54.533Z,39.18
2018-04-27T18:00:22.216Z,40.09
2018-04-27T18:02:49.805Z,40.99
2018-04-27T18:05:17.406Z,41.72
2018-04-27T18:07:45.026Z,40.61
2018-04-27T18:10:12.652Z,40.70
2018-04-27T18:12:40.385Z,41.79
2018-04-27T18:15:08.026Z,41.75
2018-04-27T18:17:35.659Z,42.28
2018-04-27T18:20:03.297Z,41.73
2018-04-27T18:22:30.926Z,41.76
2018-04-27T18:24:58.545Z,41.33
2018-04-27T18:27:26.224Z,41.80
2018-04-27T18:29:53.899Z,40.31
2018-04-27T18:32:21.509Z,40.54
2018-04-27T18:34:49.101Z,41.82
2018-04-27T18:37:16.739Z,42.33
2018-04-27T18:39:44.403Z,42.24
2018-04-27T18:42:12.034Z,41.85
2018-04-27T18:44:39.674Z,41.91
2018-04-27T18:47:07.297Z,43.15
2018-04-27T18:49:34.965Z,39.93
2018-04-27T18:52:02.611Z,42.03
2018-04-27T18:54:30.245Z,42.37
2018-04-27T18:56:57.909Z,42.18
2018-04-27T18:59:25.592Z,43.21
2018-04-27T19:01:53.283Z,43.13
2018-04-27T19:04:20.977Z,42.85
2018-04-27T19:06:48.601Z,42.69
2018-04-27T19:09:16.246Z,43.17
2018-04-27T19:11:44.006Z,42.97
2018-04-27T19:14:11.662Z,43.81
2018-04-27T19:16:39.347Z,44.22
2018-04-27T19:19:07.158Z,44.50
2018-04-27T19:21:34.785Z,44.57
2018-04-27T19:24:02.507Z,44.98
2018-04-27T19:26:30.168Z,45.84
2018-04-27T19:28:57.802Z,45.98
2018-04-27T19:31:25.530Z,46.61
2018-04-27T19:33:53.969Z,46.06
2018-04-27T19:36:21.616Z,46.10
2018-04-27T19:38:49.362Z,45.38
2018-04-27T19:41:17.059Z,45.36
2018-04-27T19:43:44.747Z,45.67
2018-04-27T19:46:12.361Z,45.61
2018-04-27T19:48:40.036Z,46.12
2018-04-27T19:51:07.598Z,46.25
2018-04-27T19:53:35.247Z,46.87
2018-04-27T19:56:02.839Z,46.79
2018-04-27T19:58:30.426Z,47.35
2018-04-27T20:00:58.094Z,47.78
2018-04-27T20:03:25.702Z,48.33
2018-04-27T20:05:54.107Z,48.49
2018-04-27T20:08:22.678Z,48.73
2018-04-27T20:10:50.453Z,49.83
2018-04-27T20:13:18.686Z,51.31
2018-04-27T20:15:49.005Z,52.52
2018-04-27T20:18:17.423Z,54.57
2018-04-27T20:20:45.966Z,55.92
2018-04-27T20:23:14.553Z,56.62
2018-04-27T20:25:43.023Z,57.74
2018-04-27T20:28:10.637Z,57.96
2018-04-27T20:30:38.317Z,58.41
2018-04-27T20:33:21.766Z,58.62
2018-04-27T20:35:49.510Z,58.85
2018-04-27T20:41:11.680Z,59.51
2018-04-27T20:43:39.393Z,59.98
2018-04-27T20:46:07.214Z,60.25
2018-04-27T20:48:35.098Z,59.97
2018-04-27T20:51:02.787Z,59.80
2018-04-27T20:53:32.090Z,60.24
2018-04-27T20:56:02.486Z,60.61
2018-04-27T20:58:30.241Z,60.78
2018-04-27T21:00:58.870Z,61.30
2018-04-27T21:03:26.665Z,61.01
2018-04-27T21:05:54.417Z,60.69
2018-04-27T21:08:22.136Z,60.75
2018-04-27T21:10:49.893Z,60.56
2018-04-27T21:13:17.643Z,61.07
2018-04-27T21:15:45.391Z,61.20
2018-04-27T21:18:15.944Z,61.87
2018-04-27T21:20:43.725Z,61.76
2018-04-27T21:23:11.434Z,62.07
2018-04-27T21:25:39.945Z,62.29
2018-04-27T21:28:10.309Z,62.40
2018-04-27T21:30:38.034Z,62.63
2018-04-27T21:33:07.250Z,63.04
2018-04-27T21:35:50.499Z,62.68
2018-04-27T21:41:44.693Z,63.72
2018-04-27T21:44:14.367Z,63.54
2018-04-27T21:46:42.032Z,63.75
2018-04-27T21:49:13.291Z,64.40
2018-04-27T21:51:44.529Z,64.03
2018-04-27T21:54:12.142Z,64.36
2018-04-27T21:59:40.934Z,64.91
2018-04-27T22:05:13.477Z,64.74
2018-04-27T22:07:43.817Z,64.94
2018-04-27T22:10:11.401Z,64.81
2018-04-27T22:12:41.599Z,64.81
2018-04-27T22:15:10.094Z,65.15
2018-04-27T22:17:38.553Z,65.03
2018-04-27T22:20:09.541Z,65.18
2018-04-27T22:22:37.202Z,65.26
2018-04-27T22:25:09.349Z,65.52
2018-04-27T22:27:36.983Z,65.35
2018-04-27T22:30:22.058Z,65.17
2018-04-27T22:32:49.705Z,65.42
2018-04-27T22:35:20.975Z,65.58
2018-04-27T22:37:48.637Z,65.88
2018-04-27T22:40:28.005Z,65.48
2018-04-27T22:42:56.365Z,65.32
2018-04-27T22:45:25.066Z,65.42
2018-04-27T22:51:08.148Z,65.86
2018-04-27T22:53:59.327Z,65.84
2018-04-27T22:56:43.341Z,65.42
2018-04-27T22:59:11.049Z,65.82
2018-04-27T23:01:38.798Z,65.74
2018-04-27T23:04:06.487Z,65.54
2018-04-27T23:06:34.195Z,65.91
2018-04-27T23:09:01.906Z,66.08
2018-04-27T23:11:29.595Z,66.60
2018-04-27T23:14:18.722Z,66.37
2018-04-27T23:16:51.958Z,66.44
2018-04-27T23:19:19.718Z,66.58
2018-04-27T23:22:05.138Z,67.07
2018-04-27T23:24:34.694Z,67.09
2018-04-27T23:27:02.398Z,66.94
2018-04-27T23:29:30.110Z,67.42
2018-04-27T23:31:57.874Z,67.66
2018-04-27T23:34:25.540Z,67.66
2018-04-27T23:37:01.257Z,68.07
2018-04-27T23:39:28.956Z,68.34
2018-04-27T23:41:56.653Z,67.48
2018-04-27T23:44:24.345Z,67.61
2018-04-27T23:46:51.972Z,67.80
2018-04-27T23:49:21.558Z,67.89
2018-04-27T23:51:49.214Z,68.58
2018-04-27T23:54:16.849Z,68.51
2018-04-27T23:56:44.465Z,68.04
2018-04-27T23:59:12.117Z,68.14
